createdAt,value
2023-02-03T04:51:44.797Z,11.55
2023-02-03T04:54:13.261Z,17.85
2023-02-03T04:56:41.653Z,14.05
2023-02-03T04:59:09.026Z,13.50
2023-02-03T05:01:36.365Z,13.30
2023-02-03T05:04:03.729Z,10.13
2023-02-03T05:06:32.805Z,13.20
2023-02-03T05:09:00.716Z,17.00
2023-02-03T05:11:29.595Z,14.65
2023-02-03T05:14:21.726Z,18.40
2023-02-03T05:16:49.174Z,10.95
2023-02-03T05:19:16.836Z,14.38
2023-02-03T05:21:44.497Z,12.50
2023-02-03T05:24:12.003Z,12.15
2023-02-03T05:26:39.343Z,13.27
2023-02-03T05:29:07.136Z,10.85
2023-02-03T05:31:34.735Z,10.52
2023-02-03T05:34:03.282Z,10.10
2023-02-03T05:36:30.556Z,11.90
2023-02-03T05:38:57.794Z,8.35
2023-02-03T05:41:44.104Z,7.78
2023-02-03T05:44:11.826Z,11.55
2023-02-03T05:46:39.338Z,9.18
2023-02-03T05:49:06.661Z,10.95
2023-02-03T05:51:34.017Z,9.82
2023-02-03T05:54:01.272Z,13.13
2023-02-03T05:56:29.055Z,12.75
2023-02-03T05:58:56.441Z,10.80
2023-02-03T06:01:24.451Z,15.60
2023-02-03T06:03:52.453Z,8.95
2023-02-03T06:06:19.890Z,13.10
2023-02-03T06:08:47.186Z,10.50
2023-02-03T06:11:14.566Z,8.63
2023-02-03T06:13:41.797Z,10.95
2023-02-03T06:16:09.529Z,13.02
2023-02-03T06:18:36.769Z,9.60
2023-02-03T06:21:04.128Z,11.57
2023-02-03T06:23:31.380Z,10.98
2023-02-03T06:26:00.344Z,18.80
2023-02-03T06:28:27.710Z,39.10
2023-02-03T06:30:54.999Z,22.27
2023-02-03T06:33:22.438Z,18.95
2023-02-03T06:35:49.775Z,35.13
2023-02-03T06:38:17.053Z,32.17
2023-02-03T06:40:48.315Z,20.80
2023-02-03T06:43:16.314Z,24.10
2023-02-03T06:45:48.050Z,35.30
2023-02-03T06:48:15.585Z,37.10
2023-02-03T06:50:43.191Z,30.75
2023-02-03T06:53:10.499Z,42.92
2023-02-03T06:55:37.894Z,37.13
2023-02-03T06:58:05.790Z,32.33
2023-02-03T07:00:33.197Z,33.33
2023-02-03T07:03:02.315Z,39.75
2023-02-03T07:05:30.416Z,36.42
2023-02-03T07:07:59.041Z,47.47
2023-02-03T07:10:27.230Z,65.90
2023-02-03T07:12:54.653Z,61.75
2023-02-03T07:15:22.189Z,81.05
2023-02-03T07:17:54.527Z,43.90
2023-02-03T07:20:23.699Z,28.80
2023-02-03T07:22:58.668Z,74.78
2023-02-03T07:25:26.589Z,16.30
2023-02-03T07:27:54.951Z,19.83
2023-02-03T07:30:22.755Z,24.95
2023-02-03T07:32:51.245Z,29.17
2023-02-03T07:35:19.297Z,30.02
2023-02-03T07:37:46.598Z,32.47
2023-02-03T07:40:14.985Z,28.92
2023-02-03T07:42:43.684Z,21.60
2023-02-03T07:45:12.472Z,21.67
2023-02-03T07:47:40.869Z,40.28
2023-02-03T07:50:09.067Z,39.38
2023-02-03T07:52:36.981Z,36.15
2023-02-03T07:55:05.371Z,29.33
2023-02-03T07:57:33.018Z,31.65
2023-02-03T08:00:00.592Z,33.47
2023-02-03T08:02:28.099Z,40.85
2023-02-03T08:04:57.960Z,82.25
2023-02-03T08:07:25.353Z,90.97
2023-02-03T08:09:53.158Z,98.50
2023-02-03T08:12:20.983Z,112.07
2023-02-03T08:14:48.656Z,119.55
2023-02-03T08:17:16.030Z,108.40
2023-02-03T08:19:43.817Z,105.65
2023-02-03T08:22:17.970Z,115.20
2023-02-03T08:24:48.704Z,117.07
2023-02-03T08:27:21.370Z,121.10
2023-02-03T08:29:49.534Z,117.10
2023-02-03T08:32:19.556Z,124.30
2023-02-03T08:34:47.794Z,131.80
2023-02-03T08:37:18.265Z,125.07
2023-02-03T08:39:45.746Z,113.32
2023-02-03T08:42:13.230Z,110.40
2023-02-03T08:44:40.670Z,113.88
2023-02-03T08:47:08.525Z,115.22
2023-02-03T08:49:39.285Z,127.22
2023-02-03T08:52:10.357Z,138.02
2023-02-03T08:54:38.221Z,145.45
2023-02-03T08:57:05.871Z,146.35
2023-02-03T08:59:36.159Z,144.27
2023-02-03T09:02:05.749Z,141.75
2023-02-03T09:04:34.197Z,153.98
2023-02-03T09:07:03.475Z,164.93
2023-02-03T09:09:32.008Z,162.52
2023-02-03T09:12:05.382Z,160.68
2023-02-03T09:14:33.739Z,169.57
2023-02-03T09:17:03.865Z,165.32
2023-02-03T09:19:32.325Z,172.68
2023-02-03T09:22:01.372Z,165.30
2023-02-03T09:24:28.897Z,170.77
2023-02-03T09:26:57.367Z,177.77
2023-02-03T09:29:25.113Z,184.80
2023-02-03T09:31:53.039Z,196.60
2023-02-03T09:34:21.769Z,192.30
2023-02-03T09:36:49.585Z,193.50
2023-02-03T09:39:17.345Z,184.73
2023-02-03T09:42:03.228Z,182.90
2023-02-03T09:44:52.565Z,172.05
2023-02-03T09:47:34.913Z,179.13
2023-02-03T09:50:06.145Z,179.18
2023-02-03T09:52:39.327Z,167.80
2023-02-03T09:55:45.387Z,158.32
2023-02-03T09:58:20.910Z,129.70
2023-02-03T10:00:57.517Z,134.10
2023-02-03T10:03:46.697Z,140.77
2023-02-03T10:06:46.099Z,152.50
2023-02-03T10:09:25.421Z,146.05
2023-02-03T10:12:04.254Z,155.13
2023-02-03T10:14:54.585Z,148.13
2023-02-03T10:17:22.322Z,125.13
2023-02-03T10:19:57.637Z,84.07
2023-02-03T10:22:28.514Z,77.97
2023-02-03T10:25:03.632Z,91.70
2023-02-03T10:27:33.413Z,85.80
2023-02-03T10:30:14.136Z,87.55
2023-02-03T10:32:41.607Z,146.25
2023-02-03T10:35:13.201Z,98.63
2023-02-03T10:37:48.846Z,94.90
2023-02-03T10:40:17.485Z,96.00
2023-02-03T10:43:06.829Z,127.60
2023-02-03T10:45:38.413Z,125.25
2023-02-03T10:48:14.295Z,118.85
2023-02-03T10:50:49.268Z,118.20
2023-02-03T10:53:34.339Z,117.22
2023-02-03T10:56:07.356Z,118.00
2023-02-03T10:58:38.790Z,114.85
2023-02-03T11:01:17.082Z,73.70
2023-02-03T11:03:57.122Z,81.72
2023-02-03T11:06:25.065Z,81.13
2023-02-03T11:08:52.718Z,100.07
2023-02-03T11:11:25.059Z,70.78
2023-02-03T11:14:10.057Z,83.38
2023-02-03T11:17:07.081Z,95.00
2023-02-03T11:19:37.792Z,87.68
2023-02-03T11:22:05.913Z,85.50
2023-02-03T11:24:39.132Z,95.45
2023-02-03T11:27:13.066Z,109.70
2023-02-03T11:29:43.770Z,98.15
2023-02-03T11:32:31.785Z,95.07
2023-02-03T11:35:03.288Z,110.82
2023-02-03T11:37:42.410Z,108.82
2023-02-03T11:40:14.812Z,99.55
2023-02-03T11:42:45.077Z,82.70
2023-02-03T11:45:14.572Z,80.68
2023-02-03T11:47:59.561Z,84.35
2023-02-03T11:50:37.725Z,91.30
2023-02-03T11:53:24.060Z,85.53
2023-02-03T11:56:22.966Z,95.25
2023-02-03T11:58:59.552Z,83.32
2023-02-03T12:01:27.044Z,87.50
2023-02-03T12:04:03.406Z,82.95
2023-02-03T12:07:03.862Z,83.00
2023-02-03T12:09:46.412Z,81.65
2023-02-03T12:12:25.989Z,69.25
2023-02-03T12:15:03.472Z,65.35
2023-02-03T12:18:00.924Z,57.08
2023-02-03T12:20:48.221Z,48.03
2023-02-03T12:23:51.979Z,49.55
2023-02-03T12:26:24.997Z,52.60
2023-02-03T12:29:08.709Z,46.30
2023-02-03T12:32:03.737Z,38.55
2023-02-03T12:34:38.498Z,51.35
2023-02-03T12:37:12.695Z,45.42
2023-02-03T12:39:45.657Z,45.25
2023-02-03T12:42:19.738Z,43.33
2023-02-03T12:45:06.154Z,28.90
2023-02-03T12:47:59.370Z,47.03
2023-02-03T12:50:32.351Z,45.22
2023-02-03T12:53:20.946Z,43.33
2023-02-03T12:56:00.928Z,37.53
2023-02-03T12:58:34.570Z,39.60
2023-02-03T13:01:35.778Z,39.22
2023-02-03T13:04:09.890Z,39.00
2023-02-03T13:06:57.513Z,46.67
2023-02-03T13:09:32.007Z,51.50
2023-02-03T13:12:11.781Z,62.80
2023-02-03T13:14:39.523Z,53.92
2023-02-03T13:17:20.668Z,47.97
2023-02-03T13:19:55.149Z,28.77
2023-02-03T13:22:23.941Z,24.63
2023-02-03T13:25:13.371Z,26.35
2023-02-03T13:27:59.244Z,92.10
2023-02-03T13:30:58.359Z,54.55
2023-02-03T13:33:39.039Z,28.13
2023-02-03T13:36:27.907Z,18.63
2023-02-03T13:39:13.233Z,25.25
2023-02-03T13:41:51.247Z,23.52
2023-02-03T13:44:22.427Z,24.45
2023-02-03T13:46:51.840Z,29.20
2023-02-03T13:49:29.945Z,19.38
2023-02-03T13:51:57.798Z,22.23
2023-02-03T13:54:42.878Z,21.83
2023-02-03T13:57:34.422Z,26.77
2023-02-03T14:00:05.107Z,22.63
2023-02-03T14:02:44.155Z,25.83
2023-02-03T14:05:39.920Z,28.10
2023-02-03T14:08:36.755Z,30.98
2023-02-03T14:11:35.216Z,21.83
2023-02-03T14:14:05.853Z,25.38
2023-02-03T14:16:40.089Z,23.27
2023-02-03T14:19:13.187Z,24.65
2023-02-03T14:21:54.186Z,24.85
2023-02-03T14:24:22.882Z,23.53
2023-02-03T14:26:53.205Z,28.52
2023-02-03T14:29:29.380Z,21.00
2023-02-03T14:32:01.548Z,27.88
2023-02-03T14:34:38.125Z,22.20
2023-02-03T14:37:30.855Z,28.52
2023-02-03T14:40:14.209Z,23.55
2023-02-03T14:42:49.459Z,21.85
2023-02-03T14:45:35.913Z,21.83
2023-02-03T14:48:30.754Z,33.58
2023-02-03T14:51:10.773Z,30.15
2023-02-03T14:53:52.715Z,23.45
2023-02-03T14:59:04.807Z,34.10
2023-02-03T15:01:35.958Z,32.60
2023-02-03T15:04:12.098Z,33.90
2023-02-03T15:06:48.244Z,26.75
2023-02-03T15:09:38.792Z,25.67
2023-02-03T15:12:27.141Z,22.92
2023-02-03T15:15:13.307Z,24.27
2023-02-03T15:17:40.718Z,24.83
2023-02-03T15:20:33.871Z,23.33
2023-02-03T15:23:03.314Z,19.35
2023-02-03T15:25:32.993Z,24.67
2023-02-03T15:28:19.363Z,26.35
2023-02-03T15:30:51.879Z,25.92
2023-02-03T15:33:21.849Z,21.05
2023-02-03T15:35:54.780Z,19.98
2023-02-03T15:38:49.217Z,26.63
2023-02-03T15:41:23.931Z,25.92
2023-02-03T15:44:01.311Z,27.25
2023-02-03T15:46:38.887Z,31.75
2023-02-03T15:49:14.826Z,31.10
2023-02-03T15:51:49.696Z,42.03
2023-02-03T15:54:24.712Z,25.35
2023-02-03T15:57:01.757Z,33.28
2023-02-03T15:59:42.554Z,35.17
2023-02-03T16:02:22.724Z,33.00
2023-02-03T16:04:50.575Z,30.83
2023-02-03T16:07:23.042Z,28.75
2023-02-03T16:09:55.971Z,31.17
2023-02-03T16:12:29.726Z,38.60
2023-02-03T16:14:59.368Z,34.35
2023-02-03T16:17:39.379Z,40.25
2023-02-03T16:20:12.635Z,32.05
2023-02-03T16:22:44.377Z,39.58
2023-02-03T16:25:19.659Z,37.60
2023-02-03T16:28:15.763Z,35.78
2023-02-03T16:31:17.463Z,45.83
2023-02-03T16:34:05.310Z,89.22
2023-02-03T16:36:52.215Z,95.38
2023-02-03T16:39:38.145Z,102.25
2023-02-03T16:42:36.162Z,106.97
2023-02-03T16:45:32.049Z,103.95
2023-02-03T16:48:18.543Z,106.00
2023-02-03T16:50:59.730Z,132.77
2023-02-03T16:53:30.675Z,114.05
2023-02-03T16:56:04.312Z,112.63
2023-02-03T16:58:32.539Z,119.25
2023-02-03T17:01:02.803Z,119.55
2023-02-03T17:03:32.686Z,110.80
2023-02-03T17:06:11.010Z,114.43
2023-02-03T17:08:40.735Z,129.85
2023-02-03T17:11:15.981Z,129.38
2023-02-03T17:13:43.772Z,134.13
2023-02-03T17:16:15.487Z,138.80
2023-02-03T17:18:43.726Z,133.43
2023-02-03T17:21:14.503Z,137.82
2023-02-03T17:23:42.534Z,170.43
2023-02-03T17:26:10.811Z,147.57
2023-02-03T17:28:40.321Z,133.40
2023-02-03T17:31:08.350Z,134.30
2023-02-03T17:33:35.716Z,136.05
2023-02-03T17:36:07.400Z,168.98
2023-02-03T17:55:14.161Z,145.15
2023-02-03T17:57:41.575Z,138.43
2023-02-03T18:00:10.608Z,149.68
2023-02-03T18:02:43.083Z,144.00
2023-02-03T18:05:11.105Z,138.48
2023-02-03T18:07:38.415Z,166.18
2023-02-03T18:10:06.359Z,155.95
2023-02-03T18:12:33.760Z,144.32
2023-02-03T18:15:01.156Z,133.57
2023-02-03T18:17:28.522Z,147.40
2023-02-03T18:19:56.579Z,136.35
2023-02-03T18:22:24.921Z,149.02
2023-02-03T18:24:52.880Z,163.57
2023-02-03T18:27:20.211Z,149.60
2023-02-03T18:29:48.705Z,130.18
2023-02-03T18:32:16.600Z,133.65
2023-02-03T18:34:44.093Z,140.93
2023-02-03T18:37:12.455Z,134.35
2023-02-03T18:39:39.864Z,140.93
2023-02-03T18:42:07.370Z,150.32
2023-02-03T18:44:34.909Z,132.48
2023-02-03T18:47:07.039Z,144.88
2023-02-03T18:49:39.235Z,147.75
2023-02-03T18:52:06.977Z,142.52
2023-02-03T18:54:34.302Z,133.18
2023-02-03T18:57:03.069Z,130.15
2023-02-03T18:59:31.055Z,160.35
2023-02-03T19:01:58.808Z,128.60
2023-02-03T19:04:26.108Z,159.80
2023-02-03T19:06:53.848Z,199.20
2023-02-03T19:09:23.619Z,198.63
2023-02-03T19:11:50.977Z,160.55
2023-02-03T19:14:19.414Z,156.80
2023-02-03T19:16:50.262Z,177.82
2023-02-03T19:19:17.740Z,181.48
2023-02-03T19:21:46.483Z,178.88
2023-02-03T19:24:15.462Z,142.13
2023-02-03T19:26:42.939Z,146.45
2023-02-03T19:29:10.359Z,141.38
2023-02-03T19:31:38.295Z,139.15
2023-02-03T19:34:05.984Z,134.85
2023-02-03T19:36:33.272Z,147.80
2023-02-03T19:39:00.667Z,159.13
2023-02-03T19:41:30.717Z,176.70
2023-02-03T19:43:58.475Z,160.98
2023-02-03T19:46:27.369Z,313.42
2023-02-03T19:48:54.669Z,200.30
2023-02-03T19:51:22.432Z,141.23
2023-02-03T19:53:51.279Z,130.43
2023-02-03T19:56:19.270Z,130.80
2023-02-03T19:58:51.942Z,136.48
2023-02-03T20:01:20.975Z,118.10
2023-02-03T20:03:48.862Z,114.53
2023-02-03T20:06:17.396Z,110.75
2023-02-03T20:08:45.115Z,100.00
2023-02-03T20:11:13.123Z,98.32
2023-02-03T20:13:43.404Z,88.35
2023-02-03T20:16:11.433Z,83.18
2023-02-03T20:18:38.718Z,75.95
2023-02-03T20:21:06.626Z,80.65
2023-02-03T20:23:34.423Z,74.85
2023-02-03T20:26:02.677Z,68.32
2023-02-03T20:28:30.588Z,63.17
2023-02-03T20:31:00.705Z,52.65
2023-02-03T20:33:30.356Z,53.72
2023-02-03T20:35:58.637Z,52.55
2023-02-03T20:38:26.447Z,54.40
2023-02-03T20:40:54.173Z,44.05
2023-02-03T20:43:24.665Z,50.05
2023-02-03T20:45:52.368Z,46.50
2023-02-03T20:48:22.540Z,51.53
2023-02-03T20:50:50.283Z,48.65
2023-02-03T20:53:23.631Z,58.88
2023-02-03T20:55:52.316Z,46.95
2023-02-03T20:58:24.315Z,50.97
2023-02-03T21:00:52.862Z,64.32
2023-02-03T21:03:39.160Z,85.25
2023-02-03T21:06:14.280Z,65.80
2023-02-03T21:08:44.977Z,62.70
2023-02-03T21:11:14.523Z,65.13
2023-02-03T21:13:43.578Z,72.25
2023-02-03T21:16:18.715Z,72.63
2023-02-03T21:18:55.122Z,67.53
2023-02-03T21:21:42.286Z,74.18
2023-02-03T21:24:29.379Z,61.60
2023-02-03T21:26:59.038Z,64.25
2023-02-03T21:29:31.417Z,70.18
2023-02-03T21:31:59.703Z,75.25
2023-02-03T21:34:31.423Z,75.55
2023-02-03T21:37:07.417Z,91.10
2023-02-03T21:39:35.180Z,92.97
2023-02-03T21:42:41.010Z,110.95
2023-02-03T21:45:14.711Z,98.10
2023-02-03T21:47:44.359Z,100.40
2023-02-03T21:50:33.513Z,99.78
2023-02-03T21:53:10.648Z,103.50
2023-02-03T21:55:40.338Z,112.20
2023-02-03T21:58:32.479Z,104.28
2023-02-03T22:07:31.198Z,96.50
2023-02-03T22:10:09.524Z,98.95
2023-02-03T22:12:36.864Z,101.63
2023-02-03T22:15:04.338Z,99.75
2023-02-03T22:17:31.812Z,104.55
2023-02-03T22:19:59.100Z,111.68
2023-02-03T22:22:26.783Z,107.15
2023-02-03T22:24:54.010Z,103.40
2023-02-03T22:27:21.677Z,115.13
2023-02-03T22:29:49.044Z,106.57
2023-02-03T22:32:16.346Z,119.32
2023-02-03T22:34:43.715Z,111.55
2023-02-03T22:37:11.491Z,99.57
2023-02-03T22:39:38.771Z,105.90
2023-02-03T22:42:06.003Z,100.20
2023-02-03T22:44:33.246Z,94.90
2023-02-03T22:47:00.614Z,109.03
2023-02-03T22:49:28.016Z,92.30
2023-02-03T22:51:55.301Z,89.55
2023-02-03T22:54:23.039Z,102.18
2023-02-03T22:56:50.337Z,98.03
2023-02-03T22:59:17.606Z,94.13
2023-02-03T23:01:45.491Z,99.10
2023-02-03T23:04:12.798Z,96.07
2023-02-03T23:06:40.136Z,91.97
2023-02-03T23:09:07.655Z,70.88
2023-02-03T23:11:35.370Z,78.93
2023-02-03T23:14:02.813Z,81.35
2023-02-03T23:16:30.811Z,82.03
2023-02-03T23:18:58.189Z,63.97
2023-02-03T23:21:25.725Z,63.25
2023-02-03T23:23:53.615Z,46.90
2023-02-03T23:26:21.843Z,40.10
2023-02-03T23:28:50.034Z,37.35
2023-02-03T23:31:18.002Z,34.78
2023-02-03T23:34:05.437Z,36.30
2023-02-03T23:36:33.658Z,50.08
2023-02-03T23:39:00.944Z,47.75
2023-02-03T23:41:28.866Z,51.95
2023-02-03T23:43:56.164Z,49.78
2023-02-03T23:46:23.925Z,39.42
2023-02-03T23:48:51.218Z,25.23
2023-02-03T23:51:18.438Z,33.13
2023-02-03T23:53:45.727Z,34.33
2023-02-03T23:56:13.890Z,33.33
2023-02-03T23:58:41.211Z,31.88
